createdAt,value
2022-08-02T04:01:11.839Z,16.19
2022-08-02T04:03:40.629Z,16.18
2022-08-02T04:06:13.699Z,16.28
2022-08-02T04:08:45.579Z,16.33
2022-08-02T04:11:32.475Z,16.25
2022-08-02T04:14:13.918Z,16.24
2022-08-02T04:17:13.994Z,16.22
2022-08-02T04:22:51.238Z,16.24
2022-08-02T04:25:35.564Z,16.16
2022-08-02T04:28:16.905Z,16.11
2022-08-02T04:30:55.056Z,16.11
2022-08-02T04:33:32.077Z,16.06
2022-08-02T04:36:12.802Z,16.03
2022-08-02T04:38:42.427Z,15.92
2022-08-02T04:41:22.487Z,15.95
2022-08-02T04:43:52.814Z,15.90
2022-08-02T04:46:35.098Z,15.91
2022-08-02T04:49:08.710Z,15.85
2022-08-02T04:51:39.244Z,15.84
2022-08-02T04:54:16.483Z,15.84
2022-08-02T04:56:51.576Z,15.82
2022-08-02T04:59:19.890Z,15.91
2022-08-02T05:01:50.532Z,15.94
2022-08-02T05:04:29.992Z,15.97
2022-08-02T05:07:06.388Z,16.04
2022-08-02T05:09:43.254Z,16.01
2022-08-02T05:12:14.083Z,16.04
2022-08-02T05:14:44.539Z,16.10
2022-08-02T05:17:13.979Z,16.19
2022-08-02T05:19:45.841Z,16.22
2022-08-02T05:22:14.561Z,16.23
2022-08-02T05:24:46.031Z,16.18
2022-08-02T05:27:21.108Z,16.25
2022-08-02T05:29:54.032Z,16.20
2022-08-02T05:32:25.933Z,16.28
2022-08-02T05:35:00.083Z,16.29
2022-08-02T05:37:32.265Z,16.30
2022-08-02T05:40:04.878Z,16.33
2022-08-02T05:42:52.367Z,16.39
2022-08-02T05:45:24.467Z,16.43
2022-08-02T05:47:55.689Z,16.42
2022-08-02T05:50:28.768Z,16.35
2022-08-02T05:53:14.496Z,16.33
2022-08-02T05:55:51.298Z,16.31
2022-08-02T05:58:34.340Z,16.37
2022-08-02T06:01:13.011Z,16.48
2022-08-02T06:03:51.490Z,16.64
2022-08-02T06:06:28.170Z,16.68
2022-08-02T06:09:00.907Z,16.74
2022-08-02T06:11:36.796Z,16.86
2022-08-02T06:14:06.726Z,16.92
2022-08-02T06:16:42.074Z,16.90
2022-08-02T06:19:15.766Z,17.03
2022-08-02T06:22:35.141Z,17.15
2022-08-02T06:25:06.642Z,17.21
2022-08-02T06:28:10.293Z,17.25
2022-08-02T06:30:59.531Z,17.14
2022-08-02T06:33:40.584Z,17.03
2022-08-02T06:36:36.676Z,17.09
2022-08-02T06:42:36.598Z,17.13
2022-08-02T06:48:09.823Z,17.52
2022-08-02T06:50:42.919Z,17.54
2022-08-02T06:53:13.681Z,17.63
2022-08-02T06:55:46.848Z,17.73
2022-08-02T06:58:17.637Z,17.89
2022-08-02T07:00:48.071Z,17.98
2022-08-02T07:03:16.442Z,18.11
2022-08-02T07:05:49.045Z,18.18
2022-08-02T07:08:17.498Z,18.24
2022-08-02T07:10:47.726Z,18.20
2022-08-02T07:13:16.024Z,18.38
2022-08-02T07:15:49.433Z,18.55
2022-08-02T07:18:18.530Z,18.65
2022-08-02T07:20:47.107Z,18.78
2022-08-02T07:23:17.528Z,18.81
2022-08-02T07:26:01.727Z,18.81
2022-08-02T07:28:38.476Z,18.87
2022-08-02T07:31:07.314Z,19.02
2022-08-02T07:33:38.432Z,19.02
2022-08-02T07:36:09.768Z,19.10
2022-08-02T07:38:44.904Z,19.18
2022-08-02T07:41:16.497Z,19.25
2022-08-02T07:43:44.750Z,19.27
2022-08-02T07:46:13.995Z,19.33
2022-08-02T07:48:41.973Z,19.41
2022-08-02T07:51:12.923Z,19.57
2022-08-02T07:53:50.697Z,19.65
2022-08-02T07:56:21.837Z,19.72
2022-08-02T07:58:54.168Z,19.78
2022-08-02T08:01:22.520Z,19.78
2022-08-02T08:03:51.550Z,19.84
2022-08-02T08:06:19.923Z,19.77
2022-08-02T08:08:57.033Z,19.85
2022-08-02T08:11:26.599Z,19.89
2022-08-02T08:13:55.332Z,19.94
2022-08-02T08:16:23.402Z,20.01
2022-08-02T08:18:51.501Z,20.11
2022-08-02T08:21:19.588Z,20.22
2022-08-02T08:23:49.798Z,20.32
2022-08-02T08:26:18.357Z,20.39
2022-08-02T08:28:48.754Z,20.43
2022-08-02T08:31:19.177Z,20.50
2022-08-02T08:33:46.895Z,20.47
2022-08-02T08:36:17.955Z,20.50
2022-08-02T08:38:51.741Z,20.59
2022-08-02T08:41:21.623Z,20.66
2022-08-02T08:43:53.500Z,20.71
2022-08-02T08:46:29.059Z,20.71
2022-08-02T08:49:02.906Z,20.84
2022-08-02T08:51:35.873Z,20.92
2022-08-02T08:54:05.588Z,20.85
2022-08-02T08:56:39.069Z,20.93
2022-08-02T08:59:08.940Z,20.98
2022-08-02T09:01:50.487Z,21.01
2022-08-02T09:04:21.503Z,21.00
2022-08-02T09:06:52.789Z,20.98
2022-08-02T09:09:22.117Z,21.02
2022-08-02T09:11:50.213Z,20.94
2022-08-02T09:14:32.640Z,20.90
2022-08-02T09:17:15.534Z,21.03
2022-08-02T09:19:46.327Z,21.09
2022-08-02T09:22:16.825Z,21.13
2022-08-02T09:24:49.419Z,21.02
2022-08-02T09:27:22.126Z,21.02
2022-08-02T09:30:12.531Z,21.04
2022-08-02T09:32:48.117Z,21.19
2022-08-02T09:36:07.090Z,21.31
2022-08-02T09:38:26.470Z,21.45
2022-08-02T09:41:05.822Z,21.51
2022-08-02T09:43:51.886Z,21.53
2022-08-02T09:46:39.118Z,21.60
2022-08-02T09:49:14.060Z,21.66
2022-08-02T09:51:52.393Z,21.67
2022-08-02T09:54:23.435Z,21.73
2022-08-02T09:56:53.759Z,21.84
2022-08-02T09:59:35.754Z,21.88
2022-08-02T10:02:14.812Z,21.93
2022-08-02T10:04:53.458Z,21.99
2022-08-02T10:07:24.535Z,22.07
2022-08-02T10:09:59.409Z,22.10
2022-08-02T10:12:30.309Z,22.18
2022-08-02T10:15:14.200Z,22.17
2022-08-02T10:17:50.444Z,22.19
2022-08-02T10:20:23.264Z,22.26
2022-08-02T10:22:58.169Z,22.30
2022-08-02T10:25:31.304Z,22.32
2022-08-02T10:28:06.405Z,22.39
2022-08-02T10:30:35.872Z,22.40
2022-08-02T10:33:16.494Z,22.42
2022-08-02T10:35:50.267Z,22.42
2022-08-02T10:38:37.656Z,22.45
2022-08-02T10:41:12.082Z,22.52
2022-08-02T10:43:47.016Z,22.54
2022-08-02T10:46:34.640Z,22.53
2022-08-02T10:49:38.121Z,22.55
2022-08-02T10:52:09.223Z,22.62
2022-08-02T10:54:44.469Z,22.72
2022-08-02T10:57:21.441Z,22.69
2022-08-02T11:00:04.584Z,22.75
2022-08-02T11:02:53.151Z,22.84
2022-08-02T11:05:42.751Z,22.86
2022-08-02T11:08:20.912Z,22.86
2022-08-02T11:10:59.342Z,22.89
2022-08-02T11:13:39.308Z,22.95
2022-08-02T11:19:18.891Z,23.13
2022-08-02T11:22:22.301Z,23.19
2022-08-02T11:25:00.717Z,23.20
2022-08-02T11:27:32.313Z,23.24
2022-08-02T11:30:32.028Z,23.31
2022-08-02T11:33:05.912Z,23.38
2022-08-02T11:35:48.774Z,23.40
2022-08-02T11:38:35.096Z,23.48
2022-08-02T11:47:41.162Z,23.82
2022-08-02T11:50:31.598Z,23.95
2022-08-02T11:53:05.449Z,24.09
2022-08-02T11:56:12.829Z,24.31
2022-08-02T11:59:01.516Z,24.41
2022-08-02T12:01:45.144Z,24.61
2022-08-02T12:04:22.690Z,24.78
2022-08-02T12:07:09.361Z,24.85
2022-08-02T12:09:53.225Z,25.02
2022-08-02T12:12:25.140Z,25.22
2022-08-02T12:15:36.778Z,25.57
2022-08-02T12:18:35.232Z,25.86
2022-08-02T12:21:07.946Z,25.96
2022-08-02T12:24:01.020Z,25.88
2022-08-02T12:26:40.991Z,25.98
2022-08-02T12:29:16.318Z,26.08
2022-08-02T12:32:14.802Z,26.08
2022-08-02T12:34:45.871Z,26.05
2022-08-02T12:37:29.911Z,26.18
2022-08-02T12:40:02.355Z,26.23
2022-08-02T12:43:01.596Z,26.30
2022-08-02T12:46:07.415Z,26.35
2022-08-02T12:49:02.390Z,26.44
2022-08-02T12:51:58.999Z,26.40
2022-08-02T12:54:41.220Z,26.58
2022-08-02T12:57:18.845Z,26.72
2022-08-02T12:59:59.791Z,26.75
2022-08-02T13:02:35.088Z,26.85
2022-08-02T13:05:06.394Z,26.95
2022-08-02T13:07:37.874Z,26.87
2022-08-02T13:16:02.058Z,26.86
2022-08-02T13:18:46.902Z,26.94
2022-08-02T13:21:39.817Z,27.08
2022-08-02T13:24:32.744Z,27.35
2022-08-02T13:27:05.250Z,27.45
2022-08-02T13:30:06.015Z,27.51
2022-08-02T13:32:52.529Z,27.57
2022-08-02T13:35:36.139Z,27.73
2022-08-02T13:38:11.397Z,27.68
2022-08-02T13:41:04.407Z,27.50
2022-08-02T13:43:57.162Z,27.60
2022-08-02T13:46:38.541Z,27.52
2022-08-02T13:49:51.290Z,27.40
2022-08-02T13:52:28.070Z,27.54
2022-08-02T13:55:01.945Z,27.76
2022-08-02T13:57:39.264Z,28.01
2022-08-02T14:00:14.096Z,28.28
2022-08-02T14:02:54.230Z,28.41
2022-08-02T14:05:54.133Z,28.37
2022-08-02T14:08:37.325Z,28.26
2022-08-02T14:11:07.105Z,28.18
2022-08-02T14:13:36.459Z,28.10
2022-08-02T14:16:08.769Z,27.98
2022-08-02T14:18:52.405Z,27.93
2022-08-02T14:21:20.320Z,27.92
2022-08-02T14:23:51.111Z,28.08
2022-08-02T14:26:32.006Z,28.26
2022-08-02T14:29:18.920Z,28.30
2022-08-02T14:31:47.129Z,28.32
2022-08-02T14:34:16.358Z,28.26
2022-08-02T14:36:45.207Z,28.35
2022-08-02T14:39:22.586Z,28.39
2022-08-02T14:41:58.284Z,28.41
2022-08-02T14:44:30.682Z,28.38
2022-08-02T14:46:59.553Z,28.40
2022-08-02T14:49:45.018Z,28.49
2022-08-02T14:52:15.555Z,28.67
2022-08-02T14:54:47.763Z,28.74
2022-08-02T14:57:20.783Z,29.07
2022-08-02T14:59:53.773Z,29.19
2022-08-02T15:02:28.056Z,29.28
2022-08-02T15:05:00.907Z,29.40
2022-08-02T15:07:45.359Z,29.52
2022-08-02T15:10:36.885Z,29.62
2022-08-02T15:13:07.968Z,29.71
2022-08-02T15:15:40.509Z,29.71
2022-08-02T15:18:20.516Z,29.67
2022-08-02T15:20:57.790Z,29.62
2022-08-02T15:23:37.591Z,29.72
2022-08-02T15:26:14.614Z,29.73
2022-08-02T15:28:45.112Z,29.75
2022-08-02T15:31:33.496Z,29.72
2022-08-02T15:34:02.652Z,29.55
2022-08-02T15:36:35.797Z,29.29
2022-08-02T15:39:14.182Z,28.97
2022-08-02T15:41:44.628Z,28.77
2022-08-02T15:44:22.575Z,28.59
2022-08-02T15:49:41.019Z,28.22
2022-08-02T15:52:21.019Z,28.17
2022-08-02T15:54:56.455Z,28.08
2022-08-02T15:57:43.347Z,28.00
2022-08-02T16:00:17.914Z,27.92
2022-08-02T16:05:33.616Z,27.72
2022-08-02T16:08:05.413Z,27.70
2022-08-02T16:10:37.223Z,27.67
2022-08-02T16:13:32.446Z,27.62
2022-08-02T16:16:00.325Z,27.57
2022-08-02T16:18:28.438Z,27.52
2022-08-02T16:20:56.535Z,27.49
2022-08-02T16:24:01.843Z,27.45
2022-08-02T16:26:25.973Z,27.35
2022-08-02T16:28:55.533Z,27.32
2022-08-02T16:31:25.736Z,27.28
2022-08-02T16:33:57.172Z,27.25
2022-08-02T16:36:27.876Z,27.17
2022-08-02T16:38:57.341Z,27.13
2022-08-02T16:41:45.495Z,27.14
2022-08-02T16:44:29.887Z,27.13
2022-08-02T16:47:01.438Z,27.10
2022-08-02T16:52:28.632Z,27.04
2022-08-02T16:54:58.128Z,27.04
2022-08-02T16:57:42.740Z,27.05
2022-08-02T17:00:15.572Z,27.02
2022-08-02T17:02:48.066Z,27.01
2022-08-02T17:05:17.487Z,27.01
2022-08-02T17:08:16.645Z,26.99
2022-08-02T17:10:37.180Z,26.95
2022-08-02T17:13:14.533Z,26.96
2022-08-02T17:16:01.089Z,26.92
2022-08-02T17:18:34.426Z,26.91
2022-08-02T17:21:10.488Z,26.77
2022-08-02T17:26:28.584Z,26.59
2022-08-02T17:29:15.598Z,26.54
2022-08-02T17:32:02.892Z,26.48
2022-08-02T17:34:35.759Z,26.42
2022-08-02T17:37:11.331Z,26.37
2022-08-02T17:39:43.896Z,26.35
2022-08-02T17:42:23.125Z,26.28
2022-08-02T17:44:55.259Z,26.30
2022-08-02T17:47:42.260Z,26.33
2022-08-02T17:50:13.753Z,26.27
2022-08-02T17:52:50.520Z,26.20
2022-08-02T17:55:23.283Z,26.15
2022-08-02T17:57:55.543Z,26.11
2022-08-02T18:00:30.454Z,26.06
2022-08-02T18:03:07.938Z,26.03
2022-08-02T18:05:53.603Z,26.01
2022-08-02T18:08:24.375Z,26.05
2022-08-02T18:10:53.428Z,26.11
2022-08-02T18:13:21.914Z,26.16
2022-08-02T18:15:50.588Z,26.17
2022-08-02T18:18:29.344Z,26.14
2022-08-02T18:20:58.223Z,26.11
2022-08-02T18:23:27.945Z,26.09
2022-08-02T18:25:57.944Z,26.06
2022-08-02T18:28:27.642Z,26.07
2022-08-02T18:30:55.570Z,26.07
2022-08-02T18:33:55.855Z,26.06
2022-08-02T18:36:24.791Z,26.05
2022-08-02T18:38:55.505Z,26.02
2022-08-02T18:41:28.656Z,26.02
2022-08-02T18:44:02.856Z,26.02
2022-08-02T18:46:34.281Z,25.99
2022-08-02T18:49:14.992Z,26.01
2022-08-02T18:51:45.228Z,25.98
2022-08-02T18:54:16.407Z,25.97
2022-08-02T18:56:56.013Z,25.96
2022-08-02T18:59:26.851Z,25.95
2022-08-02T19:01:57.487Z,25.94
2022-08-02T19:04:28.813Z,25.91
2022-08-02T19:07:08.212Z,25.89
2022-08-02T19:09:40.234Z,25.87
2022-08-02T19:12:12.393Z,25.85
2022-08-02T19:14:45.426Z,25.82
2022-08-02T19:17:55.714Z,25.80
2022-08-02T19:20:19.550Z,25.78
2022-08-02T19:22:53.747Z,25.76
2022-08-02T19:25:27.646Z,25.75
2022-08-02T19:28:01.418Z,25.75
2022-08-02T19:30:29.674Z,25.74
2022-08-02T19:33:09.299Z,25.72
2022-08-02T19:38:38.541Z,25.70
2022-08-02T19:41:10.186Z,25.68
2022-08-02T19:44:22.841Z,25.66
2022-08-02T19:46:31.119Z,25.66
2022-08-02T19:49:01.003Z,25.65
2022-08-02T19:51:55.471Z,25.64
2022-08-02T19:54:53.967Z,25.63
2022-08-02T19:57:13.750Z,25.60
2022-08-02T19:59:47.676Z,25.56
2022-08-02T20:02:18.519Z,25.56
2022-08-02T20:04:50.214Z,25.51
2022-08-02T20:07:54.711Z,25.45
2022-08-02T20:10:26.526Z,25.42
2022-08-02T20:12:58.110Z,25.41
2022-08-02T20:15:56.348Z,25.39
2022-08-02T20:18:15.862Z,25.37
2022-08-02T20:20:54.629Z,25.36
2022-08-02T20:23:34.254Z,25.38
2022-08-02T20:26:26.506Z,25.41
2022-08-02T20:28:56.905Z,25.47
2022-08-02T20:31:30.757Z,25.41
2022-08-02T20:34:01.668Z,25.39
2022-08-02T20:36:32.970Z,25.35
2022-08-02T20:39:02.204Z,25.32
2022-08-02T20:41:37.228Z,25.29
2022-08-02T20:44:16.087Z,25.24
2022-08-02T20:46:59.901Z,25.19
2022-08-02T20:49:40.811Z,25.16
2022-08-02T20:52:36.982Z,25.16
2022-08-02T20:59:15.543Z,25.14
2022-08-02T21:01:58.569Z,25.11
2022-08-02T21:04:41.218Z,25.09
2022-08-02T21:07:18.013Z,25.09
2022-08-02T21:10:07.507Z,25.08
2022-08-02T21:12:49.157Z,25.06
2022-08-02T21:15:40.941Z,25.02
2022-08-02T21:18:33.281Z,25.02
2022-08-02T21:24:26.785Z,24.99
2022-08-02T21:27:52.858Z,24.96
2022-08-02T21:34:01.537Z,24.84
2022-08-02T21:52:35.124Z,24.69
2022-08-02T21:55:02.999Z,24.64
2022-08-02T21:57:34.605Z,24.64
2022-08-02T22:00:02.993Z,24.64
2022-08-02T22:02:31.291Z,24.64
2022-08-02T22:04:59.148Z,24.65
2022-08-02T22:07:30.359Z,24.60
2022-08-02T22:10:09.892Z,24.57
2022-08-02T22:12:37.699Z,24.53
2022-08-02T22:15:10.262Z,24.52
2022-08-02T22:17:51.317Z,24.50
2022-08-02T22:20:21.699Z,24.49
2022-08-02T22:22:50.933Z,24.49
2022-08-02T22:25:36.907Z,24.47
2022-08-02T22:28:37.643Z,24.45
2022-08-02T22:30:54.327Z,24.43
2022-08-02T22:33:42.401Z,24.40
2022-08-02T22:36:15.542Z,24.40
2022-08-02T22:38:44.630Z,24.40
2022-08-02T22:41:14.866Z,24.39
2022-08-02T22:43:43.505Z,24.36
2022-08-02T22:46:15.432Z,24.35
2022-08-02T22:48:44.357Z,24.34
2022-08-02T22:51:13.629Z,24.31
2022-08-02T22:53:41.290Z,24.28
2022-08-02T22:56:09.391Z,24.27
2022-08-02T22:58:35.065Z,27.06
2022-08-02T22:58:38.244Z,26.66
